Time;durP1;ratioP1;P1;durP2;ratioP2;P2;SDS_P1;SDS_P2;PMS_P1;PMS_P2;Temp;Humidity;BMP_temperature;BMP_pressure;BME280_temperature;BME280_humidity;BME280_pressure;Samples;Min_cycle;Max_cycle;Signal;HPM_P1;HPM_P2
2023/11/16 00:00:49;;;;;;;;;;;;;;;-144.99;100.00;52545.94;5048056;28;20218;-78
2023/11/16 00:03:16;;;;;;;;;;;;;;;-144.99;100.00;52550.00;5052962;28;20008;-76
2023/11/16 00:05:43;;;;;;;;;;;;;;;-144.99;100.00;52572.44;5044502;28;19972;-79
2023/11/16 00:08:10;;;;;;;;;;;;;;;-144.99;100.00;52558.16;5044043;28;20344;-79
2023/11/16 00:10:37;;;;;;;;;;;;;;;-144.99;100.00;52523.50;5033313;28;19929;-79
2023/11/16 00:13:04;;;;;;;;;;;;;;;-144.99;100.00;52547.97;5035285;28;19929;-77
2023/11/16 00:15:33;;;;;;;;;;;;;;;-144.99;100.00;52562.25;5049113;28;19925;-77
2023/11/16 00:18:03;;;;;;;;;;;;;;;-144.99;100.00;52529.63;5039474;28;20361;-78
2023/11/16 00:20:29;;;;;;;;;;;;;;;-144.99;100.00;52607.09;5035301;28;20007;-78
2023/11/16 00:22:56;;;;;;;;;;;;;;;-144.99;100.00;52594.84;5035992;28;19979;-77
2023/11/16 00:25:23;;;;;;;;;;;;;;;-144.99;100.00;52529.63;5042922;28;19983;-76
2023/11/16 00:27:50;;;;;;;;;;;;;;;-144.99;100.00;52594.84;5031474;28;19975;-78
2023/11/16 00:30:16;;;;;;;;;;;;;;;-144.99;100.00;52566.31;5031962;28;19925;-77
2023/11/16 00:32:44;;;;;;;;;;;;;;;-144.99;100.00;52550.00;5035259;28;19925;-76
2023/11/16 00:35:11;;;;;;;;;;;;;;;-144.99;100.00;52562.25;5041507;28;19927;-77
2023/11/16 00:37:37;;;;;;;;;;;;;;;-144.99;100.00;52547.97;5038025;28;20429;-78
2023/11/16 00:40:05;;;;;;;;;;;;;;;-144.99;100.00;52574.47;5033831;28;20006;-77
2023/11/16 00:42:31;;;;;;;;;;;;;;;-144.99;100.00;52550.00;5033023;28;20031;-80
2023/11/16 00:44:57;;;;;;;;;;;;;;;-144.99;100.00;52570.38;5032359;28;19971;-77
2023/11/16 00:47:24;;;;;;;;;;;;;;;-144.99;100.00;52574.47;5033219;28;20416;-78
2023/11/16 00:49:52;;;;;;;;;;;;;;;-144.99;100.00;52543.91;5034839;28;20231;-76
2023/11/16 00:52:20;;;;;;;;;;;;;;;-144.99;100.00;52554.09;5044176;28;19978;-77
2023/11/16 00:54:48;;;;;;;;;;;;;;;-144.99;100.00;52550.00;5047539;28;19944;-78
2023/11/16 00:57:15;;;;;;;;;;;;;;;-144.99;100.00;52554.09;5033301;28;19975;-74
2023/11/16 00:59:42;;;;;;;;;;;;;;;-144.99;100.00;52566.31;5036195;28;19972;-75
2023/11/16 01:02:09;;;;;;;;;;;;;;;-144.99;100.00;52578.53;5032810;28;20019;-76
2023/11/16 01:04:38;;;;;;;;;;;;;;;-144.99;100.00;52523.50;5058289;28;19933;-73
2023/11/16 01:07:08;;;;;;;;;;;;;;;-144.99;100.00;52545.94;5036217;28;20016;-74
2023/11/16 01:09:35;;;;;;;;;;;;;;;-144.99;100.00;52590.78;5032388;28;20315;-74
2023/11/16 01:12:02;;;;;;;;;;;;;;;-144.99;100.00;52556.13;5035879;28;19936;-76
2023/11/16 01:14:29;;;;;;;;;;;;;;;-144.99;100.00;52562.25;5028403;28;20368;-76
2023/11/16 01:16:56;;;;;;;;;;;;;;;-144.99;100.00;52545.94;5037094;28;19969;-76
2023/11/16 01:19:26;;;;;;;;;;;;;;;-144.99;100.00;52582.63;5030405;28;19933;-76
2023/11/16 01:21:57;;;;;;;;;;;;;;;-144.99;100.00;52582.63;5045389;28;20415;-78
2023/11/16 01:24:25;;;;;;;;;;;;;;;-144.99;100.00;52578.53;5035617;28;19931;-77
2023/11/16 01:26:52;;;;;;;;;;;;;;;-144.99;100.00;52562.25;5034610;28;19979;-77
2023/11/16 01:29:19;;;;;;;;;;;;;;;-144.99;100.00;52568.34;5037478;28;19928;-78
2023/11/16 01:31:53;;;;;;;;;;;;;;;-144.99;100.00;52568.34;5037018;28;20020;-76
2023/11/16 01:34:20;;;;;;;;;;;;;;;-144.99;100.00;52574.47;5034021;28;19955;-77
2023/11/16 01:36:47;;;;;;;;;;;;;;;-144.99;100.00;52541.84;5045170;28;20116;-78
2023/11/16 01:39:14;;;;;;;;;;;;;;;-144.99;100.00;52550.00;5052684;28;19968;-75
2023/11/16 01:41:41;;;;;;;;;;;;;;;-144.99;100.00;52586.69;5033379;28;19929;-76
2023/11/16 01:44:09;;;;;;;;;;;;;;;-144.99;100.00;52598.94;5031091;28;19971;-75
2023/11/16 01:46:35;;;;;;;;;;;;;;;-144.99;100.00;52566.31;5034365;28;20381;-76
2023/11/16 01:49:04;;;;;;;;;;;;;;;-144.99;100.00;52558.16;5033562;28;19998;-76
2023/11/16 01:51:31;;;;;;;;;;;;;;;-144.99;100.00;52566.31;5031026;28;19925;-75
2023/11/16 01:53:58;;;;;;;;;;;;;;;-144.99;100.00;52603.00;5035783;28;19975;-77
2023/11/16 01:56:26;;;;;;;;;;;;;;;-144.99;100.00;52578.53;5034685;28;20363;-74
2023/11/16 01:58:55;;;;;;;;;;;;;;;-144.99;100.00;52533.69;5038357;28;20011;-74
2023/11/16 02:01:22;;;;;;;;;;;;;;;-144.99;100.00;52570.38;5035849;28;20104;-77
2023/11/16 02:03:48;;;;;;;;;;;;;;;-144.99;100.00;52611.16;5042358;28;19956;-75
2023/11/16 02:06:15;;;;;;;;;;;;;;;-144.99;100.00;52566.31;5041005;28;20003;-74
2023/11/16 02:08:42;;;;;;;;;;;;;;;-144.99;100.00;52558.16;5038075;28;20043;-74
2023/11/16 02:11:09;;;;;;;;;;;;;;;-144.99;100.00;52558.16;5045010;28;19987;-75
2023/11/16 02:13:36;;;;;;;;;;;;;;;-144.99;100.00;52525.56;5029131;28;19983;-76
2023/11/16 02:16:06;;;;;;;;;;;;;;;-144.99;100.00;52550.00;5034004;28;19937;-74
2023/11/16 02:18:33;;;;;;;;;;;;;;;-144.99;100.00;52570.38;5041439;28;19928;-76
2023/11/16 02:21:00;;;;;;;;;;;;;;;-144.99;100.00;52572.44;5047367;28;20274;-74
2023/11/16 02:23:28;;;;;;;;;;;;;;;-144.99;100.00;52582.63;5030779;28;19968;-76
2023/11/16 02:25:56;;;;;;;;;;;;;;;-144.99;100.00;52554.09;5039587;28;20023;-77
2023/11/16 02:28:23;;;;;;;;;;;;;;;-144.99;100.00;52547.97;5032221;28;20448;-76
2023/11/16 02:30:50;;;;;;;;;;;;;;;-144.99;100.00;52588.75;5028261;28;20019;-76
2023/11/16 02:33:17;;;;;;;;;;;;;;;-144.99;100.00;52550.00;5030799;28;19979;-74
2023/11/16 02:35:43;;;;;;;;;;;;;;;-144.99;100.00;52570.38;5027863;28;19929;-74
2023/11/16 02:38:13;;;;;;;;;;;;;;;-144.99;100.00;52554.09;5019480;28;19991;-74
2023/11/16 02:40:41;;;;;;;;;;;;;;;-144.99;100.00;52550.00;5031116;28;20005;-74
2023/11/16 02:43:08;;;;;;;;;;;;;;;-144.99;100.00;52545.94;5037815;28;19975;-76
2023/11/16 02:45:35;;;;;;;;;;;;;;;-144.99;100.00;52574.47;5032138;28;19951;-74
2023/11/16 02:48:03;;;;;;;;;;;;;;;-144.99;100.00;52576.50;5031796;28;20365;-74
2023/11/16 02:50:29;;;;;;;;;;;;;;;-144.99;100.00;52605.03;5034841;28;19925;-75
2023/11/16 02:52:56;;;;;;;;;;;;;;;-144.99;100.00;52570.38;5033535;28;20404;-74
2023/11/16 02:55:24;;;;;;;;;;;;;;;-144.99;100.00;52543.91;5036172;28;19976;-78
2023/11/16 02:57:55;;;;;;;;;;;;;;;-144.99;100.00;52537.78;5040951;28;19932;-76
2023/11/16 03:00:21;;;;;;;;;;;;;;;-144.99;100.00;52570.38;5040600;28;19932;-78
2023/11/16 03:02:49;;;;;;;;;;;;;;;-144.99;100.00;52570.38;5036959;28;20356;-76
2023/11/16 03:05:17;;;;;;;;;;;;;;;-144.99;100.00;52566.31;5044425;28;20015;-75
2023/11/16 03:07:44;;;;;;;;;;;;;;;-144.99;100.00;52582.63;5043764;28;19925;-77
2023/11/16 03:10:11;;;;;;;;;;;;;;;-144.99;100.00;52558.16;5041143;28;20029;-77
2023/11/16 03:12:38;;;;;;;;;;;;;;;-144.99;100.00;52598.94;5037964;28;20031;-77
2023/11/16 03:15:06;;;;;;;;;;;;;;;-144.99;100.00;52537.78;5058836;28;19928;-75
2023/11/16 03:17:33;;;;;;;;;;;;;;;-144.99;100.00;52590.78;5044396;28;20242;-76
2023/11/16 03:19:59;;;;;;;;;;;;;;;-144.99;100.00;52590.78;5037558;28;20015;-76
2023/11/16 03:22:26;;;;;;;;;;;;;;;-144.99;100.00;52582.63;5039159;28;20002;-76
2023/11/16 03:24:53;;;;;;;;;;;;;;;-144.99;100.00;52550.00;5038931;28;20359;-76
2023/11/16 03:27:20;;;;;;;;;;;;;;;-144.99;100.00;52574.47;5034314;28;20276;-76
2023/11/16 03:29:47;;;;;;;;;;;;;;;-144.99;100.00;52560.19;5057509;28;19971;-78
2023/11/16 03:32:14;;;;;;;;;;;;;;;-144.99;100.00;52590.78;5039755;28;20032;-76
2023/11/16 03:34:41;;;;;;;;;;;;;;;-144.99;100.00;52566.31;5043867;28;19932;-76
2023/11/16 03:37:07;;;;;;;;;;;;;;;-144.99;100.00;52562.25;5039165;28;19928;-76
2023/11/16 03:39:34;;;;;;;;;;;;;;;-144.99;100.00;52566.31;5041502;28;19972;-76
2023/11/16 03:42:01;;;;;;;;;;;;;;;-144.99;100.00;52554.09;5041257;28;19976;-76
2023/11/16 03:44:27;;;;;;;;;;;;;;;-144.99;100.00;52576.50;5042097;28;20315;-75
2023/11/16 03:46:54;;;;;;;;;;;;;;;-144.99;100.00;52570.38;5041898;28;20294;-77
2023/11/16 03:49:22;;;;;;;;;;;;;;;-144.99;100.00;52556.13;5043144;28;19925;-77
2023/11/16 03:51:49;;;;;;;;;;;;;;;-144.99;100.00;52566.31;5037790;28;19925;-76
2023/11/16 03:54:17;;;;;;;;;;;;;;;-144.99;100.00;52578.53;5037991;28;20023;-75
2023/11/16 03:56:43;;;;;;;;;;;;;;;-144.99;100.00;52594.84;5031680;28;19925;-75
2023/11/16 03:59:12;;;;;;;;;;;;;;;-144.99;100.00;52611.16;5038995;28;19963;-74
2023/11/16 04:01:39;;;;;;;;;;;;;;;-144.99;100.00;52619.31;5033960;28;19936;-74
2023/11/16 04:04:07;;;;;;;;;;;;;;;-144.99;100.00;52619.31;5033432;28;19929;-76
2023/11/16 04:06:35;;;;;;;;;;;;;;;-144.99;100.00;52578.53;5044917;28;19979;-75
2023/11/16 04:09:02;;;;;;;;;;;;;;;-144.99;100.00;52586.69;5040589;28;19961;-74
2023/11/16 04:11:28;;;;;;;;;;;;;;;-144.99;100.00;52574.47;5035109;28;19929;-74
2023/11/16 04:13:55;;;;;;;;;;;;;;;-144.99;100.00;52609.13;5041651;28;20007;-75
2023/11/16 04:16:24;;;;;;;;;;;;;;;-144.99;100.00;52554.09;5037156;28;20434;-75
2023/11/16 04:18:50;;;;;;;;;;;;;;;-144.99;100.00;52580.59;5032373;28;19925;-76
2023/11/16 04:21:18;;;;;;;;;;;;;;;-144.99;100.00;52560.19;5043612;28;20024;-73
2023/11/16 04:23:52;;;;;;;;;;;;;;;-144.99;100.00;52609.13;5038222;28;20365;-73
2023/11/16 04:26:20;;;;;;;;;;;;;;;-144.99;100.00;52568.34;5043606;28;19925;-74
2023/11/16 04:28:47;;;;;;;;;;;;;;;-144.99;100.00;52594.84;5032866;28;19925;-75
2023/11/16 04:31:14;;;;;;;;;;;;;;;-144.99;100.00;52615.25;5040573;28;19931;-78
2023/11/16 04:33:40;;;;;;;;;;;;;;;-144.99;100.00;52590.78;5042049;28;19996;-77
2023/11/16 04:36:07;;;;;;;;;;;;;;;-144.99;100.00;52582.63;5044924;28;19972;-77
2023/11/16 04:38:34;;;;;;;;;;;;;;;-144.99;100.00;52596.88;5048119;28;19932;-77
2023/11/16 04:41:02;;;;;;;;;;;;;;;-144.99;100.00;52605.03;5043098;28;19963;-74
2023/11/16 04:43:30;;;;;;;;;;;;;;;-144.99;100.00;52562.25;5045323;28;20035;-77
2023/11/16 04:45:56;;;;;;;;;;;;;;;-144.99;100.00;52586.69;5046940;28;19924;-74
2023/11/16 04:48:23;;;;;;;;;;;;;;;-144.99;100.00;52590.78;5040788;28;19925;-74
2023/11/16 04:50:50;;;;;;;;;;;;;;;-144.99;100.00;52582.63;5045214;28;19928;-75
2023/11/16 04:53:16;;;;;;;;;;;;;;;-144.99;100.00;52578.53;5036756;28;19928;-74
2023/11/16 04:55:43;;;;;;;;;;;;;;;-144.99;100.00;52647.84;5051155;28;20437;-75
2023/11/16 04:58:11;;;;;;;;;;;;;;;-144.99;100.00;52550.00;5050546;28;20023;-76
2023/11/16 05:00:38;;;;;;;;;;;;;;;-144.99;100.00;52558.16;5046858;28;19947;-76
2023/11/16 05:03:04;;;;;;;;;;;;;;;-144.99;100.00;52578.53;5049782;28;20349;-76
2023/11/16 05:05:33;;;;;;;;;;;;;;;-144.99;100.00;52594.84;5031268;28;19969;-76
2023/11/16 05:08:01;;;;;;;;;;;;;;;-144.99;100.00;52566.31;5037014;28;20217;-77
2023/11/16 05:10:27;;;;;;;;;;;;;;;-144.99;100.00;52590.78;5034283;28;20007;-78
2023/11/16 05:12:54;;;;;;;;;;;;;;;-144.99;100.00;52582.63;5033992;28;20599;-77
2023/11/16 05:15:22;;;;;;;;;;;;;;;-144.99;100.00;52550.00;5032257;28;19932;-78
2023/11/16 05:17:48;;;;;;;;;;;;;;;-144.99;100.00;52578.53;5031955;28;20016;-78
2023/11/16 05:20:16;;;;;;;;;;;;;;;-144.99;100.00;52550.00;5036645;28;19925;-78
2023/11/16 05:22:42;;;;;;;;;;;;;;;-144.99;100.00;52594.84;5028814;28;19932;-80
2023/11/16 05:25:10;;;;;;;;;;;;;;;-144.99;100.00;52562.25;5055787;28;19960;-78
2023/11/16 05:27:36;;;;;;;;;;;;;;;-144.99;100.00;52556.13;5038306;28;20452;-82
2023/11/16 05:30:03;;;;;;;;;;;;;;;-144.99;100.00;52615.25;5044084;28;19929;-77
2023/11/16 05:32:31;;;;;;;;;;;;;;;-144.99;100.00;52562.25;5039015;28;19932;-77
2023/11/16 05:34:58;;;;;;;;;;;;;;;-144.99;100.00;52600.97;5037753;28;19925;-77
2023/11/16 05:37:24;;;;;;;;;;;;;;;-144.99;100.00;52619.31;5033967;28;20405;-77
2023/11/16 05:39:51;;;;;;;;;;;;;;;-144.99;100.00;52570.38;5047591;28;19996;-77
2023/11/16 05:42:18;;;;;;;;;;;;;;;-144.99;100.00;52554.09;5058989;28;19963;-77
2023/11/16 05:44:45;;;;;;;;;;;;;;;-144.99;100.00;52596.88;5058808;28;19964;-77
2023/11/16 05:47:12;;;;;;;;;;;;;;;-144.99;100.00;52607.09;5051799;28;19968;-77
2023/11/16 05:49:40;;;;;;;;;;;;;;;-144.99;100.00;52607.09;5046042;28;19932;-77
2023/11/16 05:52:07;;;;;;;;;;;;;;;-144.99;100.00;52582.63;5046420;28;20929;-75
2023/11/16 05:54:34;;;;;;;;;;;;;;;-144.99;100.00;52578.53;5053553;28;20014;-77
2023/11/16 05:57:01;;;;;;;;;;;;;;;-144.99;100.00;52631.53;5050241;28;20014;-76
2023/11/16 05:59:27;;;;;;;;;;;;;;;-144.99;100.00;52570.38;5055900;28;19925;-75
2023/11/16 06:01:54;;;;;;;;;;;;;;;-144.99;100.00;52574.47;5041583;28;20300;-75
2023/11/16 06:04:22;;;;;;;;;;;;;;;-144.99;100.00;52607.09;5044782;28;19972;-75
2023/11/16 06:06:50;;;;;;;;;;;;;;;-144.99;100.00;52588.75;5044142;28;19939;-76
2023/11/16 06:09:17;;;;;;;;;;;;;;;-144.99;100.00;52560.19;5046759;28;20443;-75
2023/11/16 06:11:43;;;;;;;;;;;;;;;-144.99;100.00;52590.78;5031274;28;19939;-76
2023/11/16 06:14:10;;;;;;;;;;;;;;;-144.99;100.00;52570.38;5039740;28;19945;-77
2023/11/16 06:16:43;;;;;;;;;;;;;;;-144.99;100.00;52603.00;5032512;28;19933;-75
2023/11/16 06:19:09;;;;;;;;;;;;;;;-144.99;100.00;52582.63;5035854;28;19931;-77
2023/11/16 06:21:36;;;;;;;;;;;;;;;-144.99;100.00;52566.31;5038373;28;19925;-76
2023/11/16 06:24:03;;;;;;;;;;;;;;;-144.99;100.00;52545.94;5034635;28;19972;-76
2023/11/16 06:26:31;;;;;;;;;;;;;;;-144.99;100.00;52564.28;5034622;28;20037;-75
2023/11/16 06:28:57;;;;;;;;;;;;;;;-144.99;100.00;52582.63;5029208;28;20364;-76
2023/11/16 06:31:24;;;;;;;;;;;;;;;-144.99;100.00;52611.16;5049942;28;20016;-76
2023/11/16 06:33:50;;;;;;;;;;;;;;;-144.99;100.00;52586.69;5038395;28;19932;-76
2023/11/16 06:36:17;;;;;;;;;;;;;;;-144.99;100.00;52582.63;4340673;28;10000768;-76
2023/11/16 06:38:43;;;;;;;;;;;;;;;-144.99;100.00;52607.09;5042805;28;20028;-77
2023/11/16 06:41:11;;;;;;;;;;;;;;;-144.99;100.00;52586.69;5033000;28;19936;-77
2023/11/16 06:43:37;;;;;;;;;;;;;;;-144.99;100.00;52580.59;5038034;28;20040;-80
2023/11/16 06:46:04;;;;;;;;;;;;;;;-144.99;100.00;52603.00;5033579;28;20527;-75
2023/11/16 06:48:32;;;;;;;;;;;;;;;-144.99;100.00;52598.94;5037749;28;20165;-78
2023/11/16 06:51:00;;;;;;;;;;;;;;;-144.99;100.00;52533.69;5043976;28;19967;-77
2023/11/16 06:53:27;;;;;;;;;;;;;;;-144.99;100.00;52588.75;5040037;28;19925;-77
2023/11/16 06:55:53;;;;;;;;;;;;;;;-144.99;100.00;52586.69;5042903;28;20024;-75
2023/11/16 06:58:22;;;;;;;;;;;;;;;-144.99;100.00;52566.31;5034887;28;19955;-76
2023/11/16 07:00:51;;;;;;;;;;;;;;;-144.99;100.00;52574.47;5040454;28;19957;-80
2023/11/16 07:03:17;;;;;;;;;;;;;;;-144.99;100.00;52588.75;5044845;28;19933;-82
2023/11/16 07:05:44;;;;;;;;;;;;;;;-144.99;100.00;52560.19;5042756;28;19928;-79
2023/11/16 07:08:10;;;;;;;;;;;;;;;-144.99;100.00;52584.66;5042024;28;20031;-81
2023/11/16 07:10:37;;;;;;;;;;;;;;;-144.99;100.00;52586.69;5036413;28;20356;-78
2023/11/16 07:13:03;;;;;;;;;;;;;;;-144.99;100.00;52582.63;5032876;28;20405;-79
2023/11/16 07:15:32;;;;;;;;;;;;;;;-144.99;100.00;52588.75;5036097;28;19935;-79
2023/11/16 07:17:58;;;;;;;;;;;;;;;-144.99;100.00;52627.47;5037914;28;19925;-78
2023/11/16 07:20:25;;;;;;;;;;;;;;;-144.99;100.00;52580.59;5053502;28;19967;-78
2023/11/16 07:22:51;;;;;;;;;;;;;;;-144.99;100.00;52566.31;5038752;28;19933;-80
2023/11/16 07:25:20;;;;;;;;;;;;;;;-144.99;100.00;52621.34;5034447;28;20050;-80
2023/11/16 07:27:47;;;;;;;;;;;;;;;-144.99;100.00;52562.25;5036778;28;19929;-81
2023/11/16 07:30:14;;;;;;;;;;;;;;;-144.99;100.00;52541.84;5036197;28;19972;-79
2023/11/16 07:32:43;;;;;;;;;;;;;;;-144.99;100.00;52603.00;5033367;28;20005;-79
2023/11/16 07:35:15;;;;;;;;;;;;;;;-144.99;100.00;52578.53;5036584;28;20408;-77
2023/11/16 07:37:44;;;;;;;;;;;;;;;-144.99;100.00;52596.88;5042259;28;19929;-81
2023/11/16 07:40:11;;;;;;;;;;;;;;;-144.99;100.00;52574.47;5053544;28;20006;-78
2023/11/16 07:42:39;;;;;;;;;;;;;;;-144.99;100.00;52578.53;5041970;28;19960;-78
2023/11/16 07:45:09;;;;;;;;;;;;;;;-144.99;100.00;52582.63;5048043;28;20138;-77
2023/11/16 07:47:37;;;;;;;;;;;;;;;-144.99;100.00;52572.44;5034078;28;20480;-77
2023/11/16 07:50:06;;;;;;;;;;;;;;;-144.99;100.00;52582.63;5040724;28;19932;-78
2023/11/16 07:52:42;;;;;;;;;;;;;;;-144.99;100.00;52627.47;5030917;28;20039;-77
2023/11/16 07:55:09;;;;;;;;;;;;;;;-144.99;100.00;52578.53;5035180;28;20385;-78
2023/11/16 07:57:36;;;;;;;;;;;;;;;-144.99;100.00;52552.03;5046147;28;19928;-77
2023/11/16 08:00:08;;;;;;;;;;;;;;;-144.99;100.00;52590.78;5035882;28;20039;-77
2023/11/16 08:03:41;;;;;;;;;;;;;;;-144.99;100.00;52607.09;5053899;28;19968;-77
2023/11/16 08:05:26;;;;;;;;;;;;;;;-144.99;100.00;52603.00;5039579;28;20039;-76
2023/11/16 08:07:52;;;;;;;;;;;;;;;-144.99;100.00;52558.16;5013619;28;20019;-77
2023/11/16 08:10:21;;;;;;;;;;;;;;;-144.99;100.00;52603.00;5054075;28;19971;-78
2023/11/16 08:12:50;;;;;;;;;;;;;;;-144.99;100.00;52574.47;5063854;28;19971;-79
2023/11/16 08:15:23;;;;;;;;;;;;;;;-144.99;100.00;52578.53;5031339;28;19929;-79
2023/11/16 08:17:52;;;;;;;;;;;;;;;-144.99;100.00;52562.25;5038713;28;19925;-78
2023/11/16 08:20:22;;;;;;;;;;;;;;;-144.99;100.00;52554.09;5038296;28;20285;-76
2023/11/16 08:22:50;;;;;;;;;;;;;;;-144.99;100.00;52529.63;5040200;28;20014;-77
2023/11/16 08:25:18;;;;;;;;;;;;;;;-144.99;100.00;52533.69;5037570;28;20339;-76
2023/11/16 08:27:44;;;;;;;;;;;;;;;-144.99;100.00;52566.31;5034920;28;20029;-77
2023/11/16 08:30:11;;;;;;;;;;;;;;;-144.99;100.00;52590.78;5031015;28;19968;-74
2023/11/16 08:32:38;;;;;;;;;;;;;;;-144.99;100.00;52611.16;5021410;28;20419;-80
2023/11/16 08:35:05;;;;;;;;;;;;;;;-144.99;100.00;52566.31;5039112;28;20019;-74
2023/11/16 08:37:32;;;;;;;;;;;;;;;-144.99;100.00;52566.31;5032164;28;20016;-77
2023/11/16 08:39:59;;;;;;;;;;;;;;;-144.99;100.00;52598.94;5037586;28;19952;-78
2023/11/16 08:42:26;;;;;;;;;;;;;;;-144.99;100.00;52582.63;5033937;28;20238;-76
2023/11/16 08:44:52;;;;;;;;;;;;;;;-144.99;100.00;52541.84;5050128;28;19980;-75
2023/11/16 08:47:19;;;;;;;;;;;;;;;-144.99;100.00;52570.38;5039499;28;20048;-76
2023/11/16 08:49:47;;;;;;;;;;;;;;;-144.99;100.00;52590.78;5042710;28;20272;-78
2023/11/16 08:52:14;;;;;;;;;;;;;;;-144.99;100.00;52582.63;5037821;28;20011;-76
2023/11/16 08:54:41;;;;;;;;;;;;;;;-144.99;100.00;52550.00;5034467;28;20411;-77
2023/11/16 08:57:09;;;;;;;;;;;;;;;-144.99;100.00;52562.25;5039037;28;20400;-74
2023/11/16 08:59:36;;;;;;;;;;;;;;;-144.99;100.00;52562.25;5031327;28;19972;-77
2023/11/16 09:02:03;;;;;;;;;;;;;;;-144.99;100.00;52558.16;5032335;28;19982;-76
2023/11/16 09:04:30;;;;;;;;;;;;;;;-144.99;100.00;52578.53;5035994;28;19929;-78
2023/11/16 09:06:58;;;;;;;;;;;;;;;-144.99;100.00;52545.94;5043506;28;19928;-77
2023/11/16 09:09:35;;;;;;;;;;;;;;;-144.99;100.00;52594.84;5030485;28;19937;-78
2023/11/16 09:12:05;;;;;;;;;;;;;;;-144.99;100.00;52590.78;5037583;28;20301;-78
2023/11/16 09:14:34;;;;;;;;;;;;;;;-144.99;99.85;52603.00;5042425;28;19925;-75
2023/11/16 09:17:02;;;;;;;;;;;;;;;-144.99;99.34;52574.47;5050833;28;19936;-78
2023/11/16 09:19:29;;;;;;;;;;;;;;;-144.99;99.37;52550.00;5033076;28;19928;-76
2023/11/16 09:21:55;;;;;;;;;;;;;;;-144.99;99.23;52580.59;5039694;28;20031;-78
2023/11/16 09:24:22;;;;;;;;;;;;;;;-144.99;99.29;52588.75;5043182;28;19976;-75
2023/11/16 09:26:50;;;;;;;;;;;;;;;-144.99;99.35;52623.38;5043325;28;20015;-75
2023/11/16 09:29:18;;;;;;;;;;;;;;;-144.99;99.69;52590.78;5044189;28;19925;-78
2023/11/16 09:31:46;;;;;;;;;;;;;;;-144.99;99.38;52570.38;5043855;28;19925;-79
2023/11/16 09:34:16;;;;;;;;;;;;;;;-144.99;99.26;52562.25;5043692;28;20040;-79
2023/11/16 09:36:43;;;;;;;;;;;;;;;-144.99;99.13;52564.28;5033858;28;19932;-78
2023/11/16 09:39:11;;;;;;;;;;;;;;;-144.99;99.29;52560.19;5031423;28;20234;-79
2023/11/16 09:41:40;;;;;;;;;;;;;;;-144.99;99.43;52627.47;5036186;28;19929;-79
2023/11/16 09:44:07;;;;;;;;;;;;;;;-144.99;99.64;52580.59;5032757;28;20419;-78
2023/11/16 09:46:37;;;;;;;;;;;;;;;-144.99;99.66;52558.16;5039173;28;19960;-78
2023/11/16 09:49:06;;;;;;;;;;;;;;;-144.99;99.45;52611.16;5055157;28;19939;-80
2023/11/16 09:51:35;;;;;;;;;;;;;;;-144.99;99.24;52574.47;5047873;28;19983;-79
2023/11/16 09:54:02;;;;;;;;;;;;;;;-144.99;98.23;52582.63;5045745;28;20032;-79
2023/11/16 09:56:30;;;;;;;;;;;;;;;-144.99;98.20;52582.63;5033886;28;19929;-80
2023/11/16 09:59:03;;;;;;;;;;;;;;;-144.99;97.92;52578.53;5039239;28;20225;-79
2023/11/16 10:01:30;;;;;;;;;;;;;;;-144.99;97.36;52574.47;5042476;28;19935;-77
2023/11/16 10:03:59;;;;;;;;;;;;;;;-144.99;97.21;52588.75;5045615;28;20610;-79
2023/11/16 10:06:29;;;;;;;;;;;;;;;-144.99;97.06;52541.84;5044017;28;19929;-79
2023/11/16 10:08:56;;;;;;;;;;;;;;;-144.99;97.25;52598.94;5036358;28;19945;-75
2023/11/16 10:11:23;;;;;;;;;;;;;;;-144.99;97.06;52603.00;5051123;28;20015;-77
2023/11/16 10:13:53;;;;;;;;;;;;;;;-144.99;97.32;52545.94;5034943;28;20389;-77
2023/11/16 10:16:24;;;;;;;;;;;;;;;-144.99;97.09;52545.94;5045649;28;19932;-75
2023/11/16 10:18:58;;;;;;;;;;;;;;;-144.99;96.91;52592.81;5040527;28;20008;-78
2023/11/16 10:21:25;;;;;;;;;;;;;;;-144.99;96.80;52582.63;5055169;28;20001;-77
2023/11/16 10:23:52;;;;;;;;;;;;;;;-144.99;96.77;52550.00;5046802;28;19932;-78
2023/11/16 10:26:19;;;;;;;;;;;;;;;-144.99;96.57;52558.16;5048321;28;19983;-76
2023/11/16 10:28:53;;;;;;;;;;;;;;;-144.99;95.57;52590.78;5041437;28;19925;-76
2023/11/16 10:31:20;;;;;;;;;;;;;;;-144.99;93.36;52523.50;5053089;28;19933;-79
2023/11/16 10:33:47;;;;;;;;;;;;;;;-144.99;91.67;52497.00;5048336;28;19928;-78
2023/11/16 10:36:15;;;;;;;;;;;;;;;-144.99;89.39;52578.53;5046281;28;19929;-77
2023/11/16 10:38:44;;;;;;;;;;;;;;;-144.99;86.91;52525.56;5051761;28;19928;-79
2023/11/16 10:41:14;;;;;;;;;;;;;;;-144.99;86.12;52452.16;5042416;28;19925;-77
2023/11/16 10:43:40;;;;;;;;;;;;;;;-144.99;83.97;52582.63;5042854;28;19928;-77
2023/11/16 10:46:09;;;;;;;;;;;;;;;-144.99;83.24;52517.41;5053847;28;19964;-80
2023/11/16 10:48:35;;;;;;;;;;;;;;;-144.99;83.48;52503.13;5062562;28;19982;-77
2023/11/16 10:51:02;;;;;;;;;;;;;;;-144.99;82.13;52484.78;5056041;28;20023;-81
2023/11/16 10:53:32;;;;;;;;;;;;;;;-144.99;80.67;52550.00;5062483;28;19932;-81
2023/11/16 10:55:59;;;;;;;;;;;;;;;-144.99;79.81;52521.47;5054528;28;19940;-79
2023/11/16 10:58:31;;;;;;;;;;;;;;;-144.99;77.65;52509.25;5046336;28;19995;-78
2023/11/16 11:00:59;;;;;;;;;;;;;;;-144.99;77.47;52497.00;5038663;28;19959;-75
2023/11/16 11:03:26;;;;;;;;;;;;;;;-144.99;76.63;52486.81;5040247;28;20336;-78
2023/11/16 11:05:54;;;;;;;;;;;;;;;-144.99;76.70;52533.69;5051609;28;20019;-79
2023/11/16 11:08:21;;;;;;;;;;;;;;;-144.99;76.96;52509.25;5034572;28;19933;-78
2023/11/16 11:10:47;;;;;;;;;;;;;;;-144.99;78.47;52562.25;5060742;28;19932;-77
2023/11/16 11:13:16;;;;;;;;;;;;;;;-144.99;78.99;52554.09;5045232;28;19929;-79
2023/11/16 11:15:48;;;;;;;;;;;;;;;-144.99;79.32;52545.94;5043615;28;19929;-78
2023/11/16 11:18:24;;;;;;;;;;;;;;;-144.99;80.20;52545.94;5050332;28;19961;-79
2023/11/16 11:20:52;;;;;;;;;;;;;;;-144.99;81.63;52586.69;5054072;28;19929;-79
2023/11/16 11:23:19;;;;;;;;;;;;;;;-144.99;83.04;52558.16;5048576;28;19936;-76
2023/11/16 11:25:48;;;;;;;;;;;;;;;-144.99;83.22;52541.84;5041306;28;20242;-80
2023/11/16 11:28:15;;;;;;;;;;;;;;;-144.99;84.49;52570.38;5039747;28;19929;-77
2023/11/16 11:30:50;;;;;;;;;;;;;;;-144.99;85.49;52558.16;5049352;28;20142;-79
2023/11/16 11:33:20;;;;;;;;;;;;;;;-144.99;85.56;52562.25;5034524;28;20016;-79
2023/11/16 11:35:52;;;;;;;;;;;;;;;-144.99;85.63;52580.59;5038847;28;19973;-76
2023/11/16 11:38:26;;;;;;;;;;;;;;;-144.99;85.61;52588.75;4690080;28;10000134;-79
2023/11/16 11:40:56;;;;;;;;;;;;;;;-144.99;86.06;52586.69;5040122;28;19928;-77
2023/11/16 11:43:24;;;;;;;;;;;;;;;-144.99;86.83;52594.84;5041980;28;19968;-78
2023/11/16 11:45:52;;;;;;;;;;;;;;;-144.99;87.52;52603.00;5040626;28;19960;-78
2023/11/16 11:48:22;;;;;;;;;;;;;;;-144.99;87.56;52615.25;5053902;28;19951;-81
2023/11/16 11:50:50;;;;;;;;;;;;;;;-144.99;87.77;52566.31;4719299;28;10000383;-80
2023/11/16 11:53:19;;;;;;;;;;;;;;;-144.99;88.78;52539.81;5059993;28;19952;-80
2023/11/16 11:55:47;;;;;;;;;;;;;;;-144.99;89.53;52558.16;5059798;28;19926;-79
2023/11/16 11:58:13;;;;;;;;;;;;;;;-144.99;89.83;52582.63;5070830;28;20063;-82
2023/11/16 12:00:46;;;;;;;;;;;;;;;-144.99;90.02;52603.00;5081367;28;19956;-83
2023/11/16 12:03:15;;;;;;;;;;;;;;;-144.99;90.22;52562.25;5053588;28;20008;-80
2023/11/16 12:05:41;;;;;;;;;;;;;;;-144.99;90.23;52594.84;5061318;28;19948;-82
2023/11/16 12:08:09;;;;;;;;;;;;;;;-144.99;90.29;52568.34;5057288;28;19983;-80
2023/11/16 12:10:36;;;;;;;;;;;;;;;-144.99;90.66;52574.47;5057835;28;19933;-82
2023/11/16 12:13:05;;;;;;;;;;;;;;;-144.99;91.02;52598.94;5067332;28;19936;-82
2023/11/16 12:15:31;;;;;;;;;;;;;;;-144.99;91.04;52580.59;5071929;28;19912;-84
2023/11/16 12:18:05;;;;;;;;;;;;;;;-144.99;90.78;52594.84;5054695;28;19948;-79
2023/11/16 12:20:36;;;;;;;;;;;;;;;-144.99;90.61;52594.84;5059053;28;19948;-81
2023/11/16 12:23:04;;;;;;;;;;;;;;;-144.99;90.52;52558.16;5072316;28;19932;-83